MET5208 - Greenville - Spartanburg to Boston

Embraer ERJ-170LR
N924AG
2 hrs 00 mins
691 nm
Scheduled - Daily

Bid/PiRep Status

Bid was submitted on Jan 02 2017.

PiRep # 74570: Approved by Sean Doyle on January 2nd, 2017 15:08 UTC

Departure

Departing from
Greenville - Spartanburg (GSP)
Departure gate
Ramp
Scheduled Departure
GMT 1600
Local 1100
METAR KGSP 170153Z 12004KT 9SM OVC014 12/09 A3031 RMK AO2 SLP260 T01220094
TAF KGSP 170206Z 1702/1724 12004KT P6SM OVC015 FM170400 12005KT P6SM OVC007 FM170600 16005KT 5SM BR VCSH OVC003 FM170800 18005KT 1SM BR VCSH OVC003 FM171600 22011KT P6SM OVC008 FM172200 22010KT P6SM OVC035
  • No charts available

Arrival

Arriving at
Boston (BOS)
Arrival gate
Scheduled Arrival
GMT 1800
Local 1300
METAR KBOS 170154Z 24011KT 10SM SCT130 BKN210 02/M07 A3025 RMK AO2 SLP241 T00221072 $
TAF KBOS 162341Z 1700/1806 24010KT P6SM BKN250 FM171100 29004KT P6SM FEW250 FM171400 35004KT P6SM SCT250 FM171700 05005KT P6SM BKN200 FM172300 10006KT P6SM -RA OVC030 FM180100 11007KT 3SM -RASN OVC010

Route Map

Planning Resources

KGSP TEMKY SYCAM LATAS TYKES WIPOR KBOS
SPA V605 GENOD GSO J14 RIC
SPA RDU FAK OTT6
SPA J37 GVE J42 OTT RAVNN5
SPA JAC EVING LOOEY JAXSN CREWE FAK OGATE BRV OTT DEALE RAVNN
Route:
OFP Layout:
Units:
Detailed Navlog:
ETOPS Planning:
Plan Stepclimbs:
Runway Analysis:
Include NOTAMS:
FIR NOTAMS:
Flight Maps:

Return Flights

MET5207
Embraer ERJ-170LR
1330 GMT
MET5209
Embraer ERJ-170LR
2230 GMT

Popularity

Hub Current Bids PiReps this month Total PiReps
KMCI 0 0 2
KLAX 0 0 0
KBOS 0 1 2